sensor_id;sensor_type;location;lat;lon;timestamp;temperature;humidity
51902;DHT22;37929;53.218;6.548;2023-07-24T00:01:31;17.50;99.90
51902;DHT22;37929;53.218;6.548;2023-07-24T00:03:57;17.50;99.90
51902;DHT22;37929;53.218;6.548;2023-07-24T00:06:24;17.50;99.90
51902;DHT22;37929;53.218;6.548;2023-07-24T00:08:50;17.50;99.90
51902;DHT22;37929;53.218;6.548;2023-07-24T00:11:16;17.50;99.90
51902;DHT22;37929;53.218;6.548;2023-07-24T00:13:42;17.40;99.90
51902;DHT22;37929;53.218;6.548;2023-07-24T00:16:08;17.40;99.90
51902;DHT22;37929;53.218;6.548;2023-07-24T00:18:34;17.40;99.90
51902;DHT22;37929;53.218;6.548;2023-07-24T00:21:00;17.30;99.90
51902;DHT22;37929;53.218;6.548;2023-07-24T00:23:26;17.40;99.90
51902;DHT22;37929;53.218;6.548;2023-07-24T00:25:51;17.40;99.90
51902;DHT22;37929;53.218;6.548;2023-07-24T00:28:18;17.40;99.90
51902;DHT22;37929;53.218;6.548;2023-07-24T00:30:44;17.40;99.90
51902;DHT22;37929;53.218;6.548;2023-07-24T00:33:10;17.30;99.90
51902;DHT22;37929;53.218;6.548;2023-07-24T00:35:35;17.30;99.90
51902;DHT22;37929;53.218;6.548;2023-07-24T00:38:01;17.30;99.90
51902;DHT22;37929;53.218;6.548;2023-07-24T00:40:27;17.30;99.90
51902;DHT22;37929;53.218;6.548;2023-07-24T00:42:52;17.20;99.90
51902;DHT22;37929;53.218;6.548;2023-07-24T00:45:19;17.20;99.90
51902;DHT22;37929;53.218;6.548;2023-07-24T00:47:45;17.20;99.90
51902;DHT22;37929;53.218;6.548;2023-07-24T00:50:11;17.20;99.90
51902;DHT22;37929;53.218;6.548;2023-07-24T00:52:38;17.10;99.90
51902;DHT22;37929;53.218;6.548;2023-07-24T00:55:04;17.10;99.90
51902;DHT22;37929;53.218;6.548;2023-07-24T00:57:31;17.10;99.90
51902;DHT22;37929;53.218;6.548;2023-07-24T00:59:57;17.00;99.90
51902;DHT22;37929;53.218;6.548;2023-07-24T01:02:23;17.00;99.90
51902;DHT22;37929;53.218;6.548;2023-07-24T01:04:49;17.00;99.90
51902;DHT22;37929;53.218;6.548;2023-07-24T01:07:15;17.00;99.90
51902;DHT22;37929;53.218;6.548;2023-07-24T01:09:42;16.90;99.90
51902;DHT22;37929;53.218;6.548;2023-07-24T01:12:10;16.90;99.90
51902;DHT22;37929;53.218;6.548;2023-07-24T01:14:51;16.90;99.90
51902;DHT22;37929;53.218;6.548;2023-07-24T01:17:23;16.90;99.90
51902;DHT22;37929;53.218;6.548;2023-07-24T01:19:54;16.80;99.90
51902;DHT22;37929;53.218;6.548;2023-07-24T01:27:25;16.80;99.90
51902;DHT22;37929;53.218;6.548;2023-07-24T01:29:51;16.70;99.90
51902;DHT22;37929;53.218;6.548;2023-07-24T01:32:17;16.70;99.90
51902;DHT22;37929;53.218;6.548;2023-07-24T01:34:44;16.70;99.90
51902;DHT22;37929;53.218;6.548;2023-07-24T01:37:11;16.70;99.90
51902;DHT22;37929;53.218;6.548;2023-07-24T01:39:38;16.70;99.90
51902;DHT22;37929;53.218;6.548;2023-07-24T01:42:05;16.70;99.90
51902;DHT22;37929;53.218;6.548;2023-07-24T01:44:31;16.60;99.90
51902;DHT22;37929;53.218;6.548;2023-07-24T01:46:57;16.60;99.90
51902;DHT22;37929;53.218;6.548;2023-07-24T01:49:23;16.60;99.90
51902;DHT22;37929;53.218;6.548;2023-07-24T01:51:49;16.60;99.90
51902;DHT22;37929;53.218;6.548;2023-07-24T01:54:14;16.60;99.90
51902;DHT22;37929;53.218;6.548;2023-07-24T01:56:40;16.60;99.90
51902;DHT22;37929;53.218;6.548;2023-07-24T01:59:06;16.60;99.90
51902;DHT22;37929;53.218;6.548;2023-07-24T02:01:32;16.60;99.90
51902;DHT22;37929;53.218;6.548;2023-07-24T02:03:57;16.60;99.90
51902;DHT22;37929;53.218;6.548;2023-07-24T02:06:23;16.50;99.90
51902;DHT22;37929;53.218;6.548;2023-07-24T02:08:49;16.60;99.90
51902;DHT22;37929;53.218;6.548;2023-07-24T02:11:17;16.60;99.90
51902;DHT22;37929;53.218;6.548;2023-07-24T02:13:46;16.60;99.90
51902;DHT22;37929;53.218;6.548;2023-07-24T02:16:13;16.60;99.90
51902;DHT22;37929;53.218;6.548;2023-07-24T02:18:42;16.60;99.90
51902;DHT22;37929;53.218;6.548;2023-07-24T02:21:08;16.50;99.90
51902;DHT22;37929;53.218;6.548;2023-07-24T02:23:34;16.60;99.90
51902;DHT22;37929;53.218;6.548;2023-07-24T02:26:00;16.60;99.90
51902;DHT22;37929;53.218;6.548;2023-07-24T02:28:26;16.60;99.90
51902;DHT22;37929;53.218;6.548;2023-07-24T02:30:52;16.60;99.90
51902;DHT22;37929;53.218;6.548;2023-07-24T02:33:22;16.60;99.90
51902;DHT22;37929;53.218;6.548;2023-07-24T02:35:51;16.70;99.90
51902;DHT22;37929;53.218;6.548;2023-07-24T02:38:17;16.70;99.90
51902;DHT22;37929;53.218;6.548;2023-07-24T02:40:44;16.70;99.90
51902;DHT22;37929;53.218;6.548;2023-07-24T02:43:10;16.60;99.90
51902;DHT22;37929;53.218;6.548;2023-07-24T02:45:37;16.60;99.90
51902;DHT22;37929;53.218;6.548;2023-07-24T02:48:04;16.60;99.90
51902;DHT22;37929;53.218;6.548;2023-07-24T02:50:30;16.60;99.90
51902;DHT22;37929;53.218;6.548;2023-07-24T02:52:55;16.60;99.90
51902;DHT22;37929;53.218;6.548;2023-07-24T02:55:21;16.60;99.90
51902;DHT22;37929;53.218;6.548;2023-07-24T02:57:47;16.60;99.90
51902;DHT22;37929;53.218;6.548;2023-07-24T03:00:13;16.60;99.90
51902;DHT22;37929;53.218;6.548;2023-07-24T03:02:39;16.60;99.90
51902;DHT22;37929;53.218;6.548;2023-07-24T03:05:05;16.60;99.90
51902;DHT22;37929;53.218;6.548;2023-07-24T03:07:32;16.60;99.90
51902;DHT22;37929;53.218;6.548;2023-07-24T03:09:58;16.60;99.90
51902;DHT22;37929;53.218;6.548;2023-07-24T03:12:24;16.70;99.90
51902;DHT22;37929;53.218;6.548;2023-07-24T03:14:50;16.70;99.90
51902;DHT22;37929;53.218;6.548;2023-07-24T03:17:15;16.70;99.90
51902;DHT22;37929;53.218;6.548;2023-07-24T03:19:41;16.70;99.90
51902;DHT22;37929;53.218;6.548;2023-07-24T03:22:07;16.70;99.90
51902;DHT22;37929;53.218;6.548;2023-07-24T03:24:34;16.70;99.90
51902;DHT22;37929;53.218;6.548;2023-07-24T03:27:00;16.70;99.90
51902;DHT22;37929;53.218;6.548;2023-07-24T03:29:26;16.80;99.90
51902;DHT22;37929;53.218;6.548;2023-07-24T03:31:52;16.80;99.90
51902;DHT22;37929;53.218;6.548;2023-07-24T03:34:18;16.80;99.90
51902;DHT22;37929;53.218;6.548;2023-07-24T03:36:44;16.80;99.90
51902;DHT22;37929;53.218;6.548;2023-07-24T03:39:10;16.80;99.90
51902;DHT22;37929;53.218;6.548;2023-07-24T03:41:37;16.80;99.90
51902;DHT22;37929;53.218;6.548;2023-07-24T03:44:02;16.80;99.90
51902;DHT22;37929;53.218;6.548;2023-07-24T03:46:28;16.80;99.90
51902;DHT22;37929;53.218;6.548;2023-07-24T03:48:54;16.80;99.90
51902;DHT22;37929;53.218;6.548;2023-07-24T03:51:23;16.80;99.90
51902;DHT22;37929;53.218;6.548;2023-07-24T03:53:49;16.80;99.90
51902;DHT22;37929;53.218;6.548;2023-07-24T03:56:15;16.80;99.90
51902;DHT22;37929;53.218;6.548;2023-07-24T03:58:40;16.90;99.90
51902;DHT22;37929;53.218;6.548;2023-07-24T04:01:07;16.90;99.90
51902;DHT22;37929;53.218;6.548;2023-07-24T04:03:33;16.90;99.90
51902;DHT22;37929;53.218;6.548;2023-07-24T04:05:59;16.90;99.90
51902;DHT22;37929;53.218;6.548;2023-07-24T04:08:25;16.90;99.90
51902;DHT22;37929;53.218;6.548;2023-07-24T04:10:51;16.90;99.90
51902;DHT22;37929;53.218;6.548;2023-07-24T04:13:17;16.90;99.90
51902;DHT22;37929;53.218;6.548;2023-07-24T04:15:43;16.90;99.90
51902;DHT22;37929;53.218;6.548;2023-07-24T04:18:10;16.90;99.90
51902;DHT22;37929;53.218;6.548;2023-07-24T04:20:36;16.90;99.90
51902;DHT22;37929;53.218;6.548;2023-07-24T04:23:02;16.90;99.90
51902;DHT22;37929;53.218;6.548;2023-07-24T04:25:28;16.90;99.90
51902;DHT22;37929;53.218;6.548;2023-07-24T04:27:54;16.90;99.90
51902;DHT22;37929;53.218;6.548;2023-07-24T04:30:19;16.90;99.90
51902;DHT22;37929;53.218;6.548;2023-07-24T04:32:45;16.90;99.90
51902;DHT22;37929;53.218;6.548;2023-07-24T04:35:11;16.90;99.90
51902;DHT22;37929;53.218;6.548;2023-07-24T04:37:37;16.80;99.90
51902;DHT22;37929;53.218;6.548;2023-07-24T04:40:04;16.90;99.90
51902;DHT22;37929;53.218;6.548;2023-07-24T04:42:30;16.90;99.90
51902;DHT22;37929;53.218;6.548;2023-07-24T04:44:56;16.90;99.90
51902;DHT22;37929;53.218;6.548;2023-07-24T04:47:22;16.90;99.90
51902;DHT22;37929;53.218;6.548;2023-07-24T04:49:48;16.80;99.90
51902;DHT22;37929;53.218;6.548;2023-07-24T04:52:14;16.80;99.90
51902;DHT22;37929;53.218;6.548;2023-07-24T04:54:39;16.80;99.90
51902;DHT22;37929;53.218;6.548;2023-07-24T04:57:05;16.90;99.90
51902;DHT22;37929;53.218;6.548;2023-07-24T04:59:31;16.90;99.90
51902;DHT22;37929;53.218;6.548;2023-07-24T05:01:57;16.90;99.90
51902;DHT22;37929;53.218;6.548;2023-07-24T05:04:22;16.90;99.90
51902;DHT22;37929;53.218;6.548;2023-07-24T05:06:48;16.90;99.90
51902;DHT22;37929;53.218;6.548;2023-07-24T05:09:14;16.90;99.90
51902;DHT22;37929;53.218;6.548;2023-07-24T05:11:41;16.90;99.90
51902;DHT22;37929;53.218;6.548;2023-07-24T05:14:09;16.90;99.90
51902;DHT22;37929;53.218;6.548;2023-07-24T05:16:34;16.90;99.90
51902;DHT22;37929;53.218;6.548;2023-07-24T05:19:00;16.90;99.90
51902;DHT22;37929;53.218;6.548;2023-07-24T05:21:26;16.90;99.90
51902;DHT22;37929;53.218;6.548;2023-07-24T05:23:52;16.90;99.90
51902;DHT22;37929;53.218;6.548;2023-07-24T05:26:17;16.90;99.90
51902;DHT22;37929;53.218;6.548;2023-07-24T05:28:44;17.00;99.90
51902;DHT22;37929;53.218;6.548;2023-07-24T05:31:09;17.00;99.90
51902;DHT22;37929;53.218;6.548;2023-07-24T05:33:35;17.00;99.90
51902;DHT22;37929;53.218;6.548;2023-07-24T05:36:02;17.00;99.90
51902;DHT22;37929;53.218;6.548;2023-07-24T05:38:28;17.00;99.90
51902;DHT22;37929;53.218;6.548;2023-07-24T05:40:58;17.00;99.90
51902;DHT22;37929;53.218;6.548;2023-07-24T05:43:24;17.10;99.90
51902;DHT22;37929;53.218;6.548;2023-07-24T05:45:51;17.10;99.90
51902;DHT22;37929;53.218;6.548;2023-07-24T05:48:17;17.10;99.90
51902;DHT22;37929;53.218;6.548;2023-07-24T05:50:43;17.10;99.90
51902;DHT22;37929;53.218;6.548;2023-07-24T05:53:08;17.10;99.90
51902;DHT22;37929;53.218;6.548;2023-07-24T05:55:34;17.10;99.90
51902;DHT22;37929;53.218;6.548;2023-07-24T05:58:00;17.10;99.90
51902;DHT22;37929;53.218;6.548;2023-07-24T06:00:26;17.10;99.90
51902;DHT22;37929;53.218;6.548;2023-07-24T06:02:53;17.10;99.90
51902;DHT22;37929;53.218;6.548;2023-07-24T06:05:18;17.20;99.90
51902;DHT22;37929;53.218;6.548;2023-07-24T06:07:48;17.20;99.90
51902;DHT22;37929;53.218;6.548;2023-07-24T06:10:14;17.20;99.90
51902;DHT22;37929;53.218;6.548;2023-07-24T06:12:40;17.20;99.90
51902;DHT22;37929;53.218;6.548;2023-07-24T06:15:06;17.20;99.90
51902;DHT22;37929;53.218;6.548;2023-07-24T06:17:32;17.20;99.90
51902;DHT22;37929;53.218;6.548;2023-07-24T06:19:58;17.20;99.90
51902;DHT22;37929;53.218;6.548;2023-07-24T06:22:24;17.20;99.90
51902;DHT22;37929;53.218;6.548;2023-07-24T06:24:50;17.30;99.90
51902;DHT22;37929;53.218;6.548;2023-07-24T06:27:16;17.30;99.90
51902;DHT22;37929;53.218;6.548;2023-07-24T06:29:42;17.30;99.90
51902;DHT22;37929;53.218;6.548;2023-07-24T06:32:08;17.40;99.90
51902;DHT22;37929;53.218;6.548;2023-07-24T06:34:34;17.40;99.90
51902;DHT22;37929;53.218;6.548;2023-07-24T06:37:00;17.40;99.90
51902;DHT22;37929;53.218;6.548;2023-07-24T06:39:26;17.40;99.90
51902;DHT22;37929;53.218;6.548;2023-07-24T06:41:54;17.40;99.90
51902;DHT22;37929;53.218;6.548;2023-07-24T06:44:20;17.50;99.90
51902;DHT22;37929;53.218;6.548;2023-07-24T06:46:46;17.50;99.90
51902;DHT22;37929;53.218;6.548;2023-07-24T06:49:12;17.50;99.90
51902;DHT22;37929;53.218;6.548;2023-07-24T06:51:38;17.40;99.90
51902;DHT22;37929;53.218;6.548;2023-07-24T06:54:04;17.40;99.90
51902;DHT22;37929;53.218;6.548;2023-07-24T06:56:31;17.50;99.90
51902;DHT22;37929;53.218;6.548;2023-07-24T06:58:56;17.50;99.90
51902;DHT22;37929;53.218;6.548;2023-07-24T07:01:22;17.50;99.90
51902;DHT22;37929;53.218;6.548;2023-07-24T07:03:48;17.60;99.90
51902;DHT22;37929;53.218;6.548;2023-07-24T07:06:14;17.50;99.90
51902;DHT22;37929;53.218;6.548;2023-07-24T07:08:40;17.60;99.90
51902;DHT22;37929;53.218;6.548;2023-07-24T07:11:05;17.60;99.90
51902;DHT22;37929;53.218;6.548;2023-07-24T07:13:31;17.60;99.90
51902;DHT22;37929;53.218;6.548;2023-07-24T07:15:57;17.60;99.90
51902;DHT22;37929;53.218;6.548;2023-07-24T07:18:23;17.70;99.90
51902;DHT22;37929;53.218;6.548;2023-07-24T07:20:49;17.70;99.90
51902;DHT22;37929;53.218;6.548;2023-07-24T07:23:16;17.70;99.90
51902;DHT22;37929;53.218;6.548;2023-07-24T07:25:42;17.80;99.90
51902;DHT22;37929;53.218;6.548;2023-07-24T07:28:14;17.80;99.90
51902;DHT22;37929;53.218;6.548;2023-07-24T07:30:41;17.80;99.90
51902;DHT22;37929;53.218;6.548;2023-07-24T07:33:07;17.80;99.90
51902;DHT22;37929;53.218;6.548;2023-07-24T07:35:34;17.80;99.90
51902;DHT22;37929;53.218;6.548;2023-07-24T07:38:00;17.90;99.90
51902;DHT22;37929;53.218;6.548;2023-07-24T07:40:26;17.90;99.90
51902;DHT22;37929;53.218;6.548;2023-07-24T07:42:53;17.90;99.90
51902;DHT22;37929;53.218;6.548;2023-07-24T07:45:19;17.90;99.90
51902;DHT22;37929;53.218;6.548;2023-07-24T07:47:45;18.00;99.90
51902;DHT22;37929;53.218;6.548;2023-07-24T07:50:11;18.00;99.90
51902;DHT22;37929;53.218;6.548;2023-07-24T07:52:40;18.00;99.90
51902;DHT22;37929;53.218;6.548;2023-07-24T07:55:06;18.10;99.90
51902;DHT22;37929;53.218;6.548;2023-07-24T07:57:34;18.10;99.90
51902;DHT22;37929;53.218;6.548;2023-07-24T08:00:04;18.20;99.90
51902;DHT22;37929;53.218;6.548;2023-07-24T08:02:31;18.10;99.90
51902;DHT22;37929;53.218;6.548;2023-07-24T08:04:58;18.20;99.90
51902;DHT22;37929;53.218;6.548;2023-07-24T08:07:25;18.30;99.90
51902;DHT22;37929;53.218;6.548;2023-07-24T08:09:53;18.30;99.90
51902;DHT22;37929;53.218;6.548;2023-07-24T08:12:19;18.30;99.90
51902;DHT22;37929;53.218;6.548;2023-07-24T08:14:46;18.30;99.90
51902;DHT22;37929;53.218;6.548;2023-07-24T08:17:12;18.40;99.90
51902;DHT22;37929;53.218;6.548;2023-07-24T08:19:38;18.40;99.90
51902;DHT22;37929;53.218;6.548;2023-07-24T08:22:03;18.40;99.90
51902;DHT22;37929;53.218;6.548;2023-07-24T08:24:34;18.40;99.90
51902;DHT22;37929;53.218;6.548;2023-07-24T08:27:00;18.40;99.90
51902;DHT22;37929;53.218;6.548;2023-07-24T08:29:26;18.50;99.90
51902;DHT22;37929;53.218;6.548;2023-07-24T08:31:52;18.50;99.90
51902;DHT22;37929;53.218;6.548;2023-07-24T08:34:18;18.50;99.90
51902;DHT22;37929;53.218;6.548;2023-07-24T08:36:44;18.50;99.90
51902;DHT22;37929;53.218;6.548;2023-07-24T08:39:10;18.50;99.90
51902;DHT22;37929;53.218;6.548;2023-07-24T08:41:37;18.50;99.90
51902;DHT22;37929;53.218;6.548;2023-07-24T08:44:05;18.60;99.90
51902;DHT22;37929;53.218;6.548;2023-07-24T08:46:35;18.50;99.90
51902;DHT22;37929;53.218;6.548;2023-07-24T08:49:03;18.60;99.90
51902;DHT22;37929;53.218;6.548;2023-07-24T08:51:29;18.60;99.90
51902;DHT22;37929;53.218;6.548;2023-07-24T08:53:57;18.60;99.90
51902;DHT22;37929;53.218;6.548;2023-07-24T08:56:23;18.60;99.90
51902;DHT22;37929;53.218;6.548;2023-07-24T08:58:49;18.60;99.90
51902;DHT22;37929;53.218;6.548;2023-07-24T09:01:15;18.60;99.90
51902;DHT22;37929;53.218;6.548;2023-07-24T09:03:41;18.70;99.90
51902;DHT22;37929;53.218;6.548;2023-07-24T09:06:07;18.70;99.90
51902;DHT22;37929;53.218;6.548;2023-07-24T09:08:37;18.70;99.90
51902;DHT22;37929;53.218;6.548;2023-07-24T09:11:05;18.70;99.90
51902;DHT22;37929;53.218;6.548;2023-07-24T09:13:32;18.70;99.90
51902;DHT22;37929;53.218;6.548;2023-07-24T09:15:59;18.70;99.90
51902;DHT22;37929;53.218;6.548;2023-07-24T09:18:25;18.80;99.90
51902;DHT22;37929;53.218;6.548;2023-07-24T09:20:51;18.80;99.90
51902;DHT22;37929;53.218;6.548;2023-07-24T09:23:26;18.80;99.90
51902;DHT22;37929;53.218;6.548;2023-07-24T09:25:52;18.90;99.90
51902;DHT22;37929;53.218;6.548;2023-07-24T09:28:18;18.90;99.90
51902;DHT22;37929;53.218;6.548;2023-07-24T09:30:58;18.90;99.90
51902;DHT22;37929;53.218;6.548;2023-07-24T09:33:37;18.80;99.90
51902;DHT22;37929;53.218;6.548;2023-07-24T09:36:05;19.00;99.90
51902;DHT22;37929;53.218;6.548;2023-07-24T09:38:33;19.10;99.90
51902;DHT22;37929;53.218;6.548;2023-07-24T09:41:01;19.20;99.90
51902;DHT22;37929;53.218;6.548;2023-07-24T09:43:28;19.30;99.90
51902;DHT22;37929;53.218;6.548;2023-07-24T09:45:58;19.30;99.90
51902;DHT22;37929;53.218;6.548;2023-07-24T09:48:26;19.40;99.90
51902;DHT22;37929;53.218;6.548;2023-07-24T09:51:05;19.50;99.90
51902;DHT22;37929;53.218;6.548;2023-07-24T09:56:22;19.70;99.90
51902;DHT22;37929;53.218;6.548;2023-07-24T09:58:49;19.80;99.90
51902;DHT22;37929;53.218;6.548;2023-07-24T10:01:20;19.80;99.90
51902;DHT22;37929;53.218;6.548;2023-07-24T10:03:49;19.90;99.90
51902;DHT22;37929;53.218;6.548;2023-07-24T10:06:16;20.10;99.90
51902;DHT22;37929;53.218;6.548;2023-07-24T10:08:42;20.20;99.90
51902;DHT22;37929;53.218;6.548;2023-07-24T10:11:13;20.30;99.90
51902;DHT22;37929;53.218;6.548;2023-07-24T10:13:40;20.20;99.90
51902;DHT22;37929;53.218;6.548;2023-07-24T10:16:06;20.30;99.90
51902;DHT22;37929;53.218;6.548;2023-07-24T10:18:34;20.30;99.90
51902;DHT22;37929;53.218;6.548;2023-07-24T10:21:01;20.30;99.90
51902;DHT22;37929;53.218;6.548;2023-07-24T10:23:27;20.20;99.90
51902;DHT22;37929;53.218;6.548;2023-07-24T10:25:54;20.20;99.90
51902;DHT22;37929;53.218;6.548;2023-07-24T10:28:30;20.20;99.90
51902;DHT22;37929;53.218;6.548;2023-07-24T10:30:56;20.20;99.90
51902;DHT22;37929;53.218;6.548;2023-07-24T10:33:24;20.40;99.90
51902;DHT22;37929;53.218;6.548;2023-07-24T10:35:54;20.60;99.90
51902;DHT22;37929;53.218;6.548;2023-07-24T10:38:31;20.60;99.90
51902;DHT22;37929;53.218;6.548;2023-07-24T10:41:01;20.60;99.90
51902;DHT22;37929;53.218;6.548;2023-07-24T10:43:42;20.60;99.90
51902;DHT22;37929;53.218;6.548;2023-07-24T10:46:08;20.60;99.90
51902;DHT22;37929;53.218;6.548;2023-07-24T10:48:34;20.60;99.90
51902;DHT22;37929;53.218;6.548;2023-07-24T10:51:06;20.70;99.90
51902;DHT22;37929;53.218;6.548;2023-07-24T10:53:37;20.70;99.90
51902;DHT22;37929;53.218;6.548;2023-07-24T10:56:05;20.60;99.90
51902;DHT22;37929;53.218;6.548;2023-07-24T10:58:32;20.60;99.90
51902;DHT22;37929;53.218;6.548;2023-07-24T11:00:58;20.50;99.90
51902;DHT22;37929;53.218;6.548;2023-07-24T11:03:25;20.40;99.90
51902;DHT22;37929;53.218;6.548;2023-07-24T11:05:52;20.30;99.90
51902;DHT22;37929;53.218;6.548;2023-07-24T11:08:20;20.20;99.90
51902;DHT22;37929;53.218;6.548;2023-07-24T11:13:33;20.00;99.90
51902;DHT22;37929;53.218;6.548;2023-07-24T11:16:08;19.90;99.90
51902;DHT22;37929;53.218;6.548;2023-07-24T11:18:48;19.80;99.90
51902;DHT22;37929;53.218;6.548;2023-07-24T11:21:14;19.70;99.90
51902;DHT22;37929;53.218;6.548;2023-07-24T11:23:55;19.60;99.90
51902;DHT22;37929;53.218;6.548;2023-07-24T11:26:23;19.60;99.90
51902;DHT22;37929;53.218;6.548;2023-07-24T11:28:50;19.50;99.90
51902;DHT22;37929;53.218;6.548;2023-07-24T11:31:16;19.50;99.90
51902;DHT22;37929;53.218;6.548;2023-07-24T11:33:46;19.40;99.90
51902;DHT22;37929;53.218;6.548;2023-07-24T11:36:12;19.40;99.90
51902;DHT22;37929;53.218;6.548;2023-07-24T11:38:38;19.40;99.90
51902;DHT22;37929;53.218;6.548;2023-07-24T11:41:04;19.30;99.90
51902;DHT22;37929;53.218;6.548;2023-07-24T11:43:30;19.40;99.90
51902;DHT22;37929;53.218;6.548;2023-07-24T11:45:56;19.40;99.90
51902;DHT22;37929;53.218;6.548;2023-07-24T11:48:23;19.40;99.90
51902;DHT22;37929;53.218;6.548;2023-07-24T11:50:52;19.50;99.90
51902;DHT22;37929;53.218;6.548;2023-07-24T11:53:29;19.60;99.90
51902;DHT22;37929;53.218;6.548;2023-07-24T11:55:59;19.80;99.90
51902;DHT22;37929;53.218;6.548;2023-07-24T11:58:29;20.00;99.90
51902;DHT22;37929;53.218;6.548;2023-07-24T12:00:55;20.10;99.90
51902;DHT22;37929;53.218;6.548;2023-07-24T12:03:24;20.10;99.90
51902;DHT22;37929;53.218;6.548;2023-07-24T12:05:50;20.10;99.90
51902;DHT22;37929;53.218;6.548;2023-07-24T12:08:17;20.10;99.90
51902;DHT22;37929;53.218;6.548;2023-07-24T12:10:44;20.20;99.90
51902;DHT22;37929;53.218;6.548;2023-07-24T12:13:10;20.10;99.90
51902;DHT22;37929;53.218;6.548;2023-07-24T12:15:36;20.20;99.90
51902;DHT22;37929;53.218;6.548;2023-07-24T12:18:04;20.10;99.90
51902;DHT22;37929;53.218;6.548;2023-07-24T12:20:30;20.00;99.90
51902;DHT22;37929;53.218;6.548;2023-07-24T12:22:57;20.00;99.90
51902;DHT22;37929;53.218;6.548;2023-07-24T12:25:29;19.90;99.90
51902;DHT22;37929;53.218;6.548;2023-07-24T12:27:58;19.60;99.90
51902;DHT22;37929;53.218;6.548;2023-07-24T12:30:24;19.30;99.90
51902;DHT22;37929;53.218;6.548;2023-07-24T12:32:49;18.90;99.90
51902;DHT22;37929;53.218;6.548;2023-07-24T12:35:16;18.50;99.90
51902;DHT22;37929;53.218;6.548;2023-07-24T12:37:43;18.30;99.90
51902;DHT22;37929;53.218;6.548;2023-07-24T12:40:09;18.10;99.90
51902;DHT22;37929;53.218;6.548;2023-07-24T12:42:35;18.00;99.90
51902;DHT22;37929;53.218;6.548;2023-07-24T12:45:01;18.00;99.90
51902;DHT22;37929;53.218;6.548;2023-07-24T12:47:29;17.90;99.90
51902;DHT22;37929;53.218;6.548;2023-07-24T12:49:55;17.90;99.90
51902;DHT22;37929;53.218;6.548;2023-07-24T12:52:23;17.90;99.90
51902;DHT22;37929;53.218;6.548;2023-07-24T12:54:49;17.80;99.90
51902;DHT22;37929;53.218;6.548;2023-07-24T12:57:15;17.80;99.90
51902;DHT22;37929;53.218;6.548;2023-07-24T12:59:41;17.80;99.90
51902;DHT22;37929;53.218;6.548;2023-07-24T13:02:07;17.80;99.90
51902;DHT22;37929;53.218;6.548;2023-07-24T13:04:32;17.70;99.90
51902;DHT22;37929;53.218;6.548;2023-07-24T13:06:58;17.70;99.90
51902;DHT22;37929;53.218;6.548;2023-07-24T13:09:26;17.60;99.90
51902;DHT22;37929;53.218;6.548;2023-07-24T13:11:52;17.60;99.90
51902;DHT22;37929;53.218;6.548;2023-07-24T13:14:20;17.60;99.90
51902;DHT22;37929;53.218;6.548;2023-07-24T13:16:46;17.60;99.90
51902;DHT22;37929;53.218;6.548;2023-07-24T13:19:12;17.60;99.90
51902;DHT22;37929;53.218;6.548;2023-07-24T13:21:38;17.60;99.90
51902;DHT22;37929;53.218;6.548;2023-07-24T13:24:06;17.60;99.90
51902;DHT22;37929;53.218;6.548;2023-07-24T13:26:32;17.70;99.90
51902;DHT22;37929;53.218;6.548;2023-07-24T13:28:57;17.80;99.90
51902;DHT22;37929;53.218;6.548;2023-07-24T13:31:23;17.90;99.90
51902;DHT22;37929;53.218;6.548;2023-07-24T13:33:49;18.10;99.90
51902;DHT22;37929;53.218;6.548;2023-07-24T13:36:15;18.10;99.90
51902;DHT22;37929;53.218;6.548;2023-07-24T13:38:41;18.10;99.90
51902;DHT22;37929;53.218;6.548;2023-07-24T13:41:07;18.10;99.90
51902;DHT22;37929;53.218;6.548;2023-07-24T13:43:34;18.10;99.90
51902;DHT22;37929;53.218;6.548;2023-07-24T13:46:00;18.10;99.90
51902;DHT22;37929;53.218;6.548;2023-07-24T13:48:28;18.00;99.90
51902;DHT22;37929;53.218;6.548;2023-07-24T13:50:55;18.00;99.90
51902;DHT22;37929;53.218;6.548;2023-07-24T13:53:21;17.90;99.90
51902;DHT22;37929;53.218;6.548;2023-07-24T13:55:48;17.90;99.90
51902;DHT22;37929;53.218;6.548;2023-07-24T13:58:13;17.90;99.90
51902;DHT22;37929;53.218;6.548;2023-07-24T14:00:39;17.80;99.90
51902;DHT22;37929;53.218;6.548;2023-07-24T14:03:05;17.70;99.90
51902;DHT22;37929;53.218;6.548;2023-07-24T14:05:31;17.60;99.90
51902;DHT22;37929;53.218;6.548;2023-07-24T14:07:58;17.60;99.90
51902;DHT22;37929;53.218;6.548;2023-07-24T14:10:23;17.60;99.90
51902;DHT22;37929;53.218;6.548;2023-07-24T14:12:49;17.60;99.90
51902;DHT22;37929;53.218;6.548;2023-07-24T14:15:15;17.60;99.90
51902;DHT22;37929;53.218;6.548;2023-07-24T14:17:40;17.50;99.90
51902;DHT22;37929;53.218;6.548;2023-07-24T14:20:07;17.50;99.90
51902;DHT22;37929;53.218;6.548;2023-07-24T14:22:33;17.50;99.90
51902;DHT22;37929;53.218;6.548;2023-07-24T14:24:58;17.50;99.90
51902;DHT22;37929;53.218;6.548;2023-07-24T14:27:27;17.40;99.90
51902;DHT22;37929;53.218;6.548;2023-07-24T14:29:53;17.40;99.90
51902;DHT22;37929;53.218;6.548;2023-07-24T14:32:19;17.40;99.90
51902;DHT22;37929;53.218;6.548;2023-07-24T14:34:52;17.30;99.90
51902;DHT22;37929;53.218;6.548;2023-07-24T14:37:19;17.40;99.90
51902;DHT22;37929;53.218;6.548;2023-07-24T14:39:44;17.40;99.90
51902;DHT22;37929;53.218;6.548;2023-07-24T14:42:13;17.40;99.90
51902;DHT22;37929;53.218;6.548;2023-07-24T14:44:39;17.40;99.90
51902;DHT22;37929;53.218;6.548;2023-07-24T14:47:05;17.40;99.90
51902;DHT22;37929;53.218;6.548;2023-07-24T14:49:32;17.40;99.90
51902;DHT22;37929;53.218;6.548;2023-07-24T14:51:58;17.40;99.90
51902;DHT22;37929;53.218;6.548;2023-07-24T14:54:24;17.30;99.90
51902;DHT22;37929;53.218;6.548;2023-07-24T14:56:49;17.20;99.90
51902;DHT22;37929;53.218;6.548;2023-07-24T14:59:15;17.20;99.90
51902;DHT22;37929;53.218;6.548;2023-07-24T15:01:41;17.20;99.90
51902;DHT22;37929;53.218;6.548;2023-07-24T15:04:07;17.20;99.90
51902;DHT22;37929;53.218;6.548;2023-07-24T15:06:35;17.20;99.90
51902;DHT22;37929;53.218;6.548;2023-07-24T15:09:01;17.20;99.90
51902;DHT22;37929;53.218;6.548;2023-07-24T15:11:27;17.20;99.90
51902;DHT22;37929;53.218;6.548;2023-07-24T15:13:52;17.20;99.90
51902;DHT22;37929;53.218;6.548;2023-07-24T15:16:18;17.10;99.90
51902;DHT22;37929;53.218;6.548;2023-07-24T15:18:44;17.10;99.90
51902;DHT22;37929;53.218;6.548;2023-07-24T15:21:10;17.00;99.90
51902;DHT22;37929;53.218;6.548;2023-07-24T15:23:36;16.90;99.90
51902;DHT22;37929;53.218;6.548;2023-07-24T15:26:02;16.90;99.90
51902;DHT22;37929;53.218;6.548;2023-07-24T15:28:27;16.80;99.90
51902;DHT22;37929;53.218;6.548;2023-07-24T15:30:54;16.80;99.90
51902;DHT22;37929;53.218;6.548;2023-07-24T15:33:20;16.80;99.90
51902;DHT22;37929;53.218;6.548;2023-07-24T15:35:46;16.80;99.90
51902;DHT22;37929;53.218;6.548;2023-07-24T15:38:12;16.70;99.90